Warsaw, IN

11:23 AM EDT on May 27, 2015 (GMT -0400)
15 South | | Change Station
CLOSE
Current Station
Personal Weather Station
Location: Warsaw, IN
Elevation: 840 ft
Nearby Weather Stations

Elev 840 ft 41.22 °N, 85.87 °W | Updated 4 minutes ago

Rain
Rain
70.0 °F
Feels Like 70.0 °F
N
6.0
Wind Variable Wind from WSW
Gusts 10.0 mph

Today
High -- | Low -- °F
--% Chance of Precip.
Yesterday
High -- | Low -- °F
Precip. -- in
6:15 AM 9:05 PM
Waxing Gibbous, 68% visible
Pressure 30.01 in
Visibility 5.0 miles
Clouds Mostly Cloudy 2400 ft
Mostly Cloudy 3400 ft
Overcast 4300 ft
Dew Point 66 °F
Humidity 88%
Rainfall 0.05 in
Snow Depth Not available.
UV 3 out of 12
Pollen 9.10 out of 12
Air Quality Not available.
Flu Activity Sporadic
METAR KASW 271515Z AUTO 23008KT 5SM RA BKN024 BKN034 OVC043 20/18 A3001 RMK AO2 P0003

More Conditions Fewer Conditions

Pressure 30.01 in
Visibility 5.0 miles
Clouds Mostly Cloudy 2400 ft
Mostly Cloudy 3400 ft
Overcast 4300 ft
Dew Point 66 °F
Humidity 88%
Rainfall 0.05 in
Snow Depth Not available.
UV 3 out of 12
Pollen 9.10 out of 12
Air Quality Not available.
Flu Activity Sporadic
METAR KASW 271515Z AUTO 23008KT 5SM RA BKN024 BKN034 OVC043 20/18 A3001 RMK AO2 P0003

More Conditions Fewer Conditions

10-Day Weather Forecast

Almanac

Astronomy

May. 27, 2015 Rise Set
Actual Time
Civil Twilight
Nautical Twilight
Astronomical Twilight
Moon
Length of Visible Light
Length of Day
Tomorrow will be .
, % of the Moon is Illuminated

Today's Extremes

State Highs State Lows

Community

WunderPhotos

Upload Photos

1,824,697 photos uploaded!

WunderBlogs® & News

Nearby

Air Quality

  Air Quality AQ Index Pollutant
Not available.

Snow Depth

Station Depth Elevation

Earthquake Activity

City Distance Mag. Time & Date
Minimum magnitude displayed is 2.5.

Coastal Water Temperatures

Place Temperature

Stations

Nearby Weather Stations

Station Location Temp. Windchill Dew Point Humidity Wind Precip. Elev Updated Type